sensor_id;sensor_type;location;lat;lon;timestamp;temperature;humidity
26952;DHT22;14507;52.418;13.398;2023-02-28T00:02:18;2.50;99.90
26952;DHT22;14507;52.418;13.398;2023-02-28T00:04:44;2.40;99.90
26952;DHT22;14507;52.418;13.398;2023-02-28T00:07:10;2.50;99.90
26952;DHT22;14507;52.418;13.398;2023-02-28T00:09:35;2.40;99.90
26952;DHT22;14507;52.418;13.398;2023-02-28T00:12:01;2.40;99.90
26952;DHT22;14507;52.418;13.398;2023-02-28T00:14:36;2.40;99.90
26952;DHT22;14507;52.418;13.398;2023-02-28T00:17:02;2.30;99.90
26952;DHT22;14507;52.418;13.398;2023-02-28T00:19:27;2.40;99.90
26952;DHT22;14507;52.418;13.398;2023-02-28T00:21:53;2.40;99.90
26952;DHT22;14507;52.418;13.398;2023-02-28T00:24:19;2.40;99.90
26952;DHT22;14507;52.418;13.398;2023-02-28T00:26:44;2.40;99.90
26952;DHT22;14507;52.418;13.398;2023-02-28T00:29:10;2.50;99.90
26952;DHT22;14507;52.418;13.398;2023-02-28T00:31:35;2.40;99.90
26952;DHT22;14507;52.418;13.398;2023-02-28T00:34:01;2.40;99.90
26952;DHT22;14507;52.418;13.398;2023-02-28T00:36:27;2.40;99.90
26952;DHT22;14507;52.418;13.398;2023-02-28T00:38:52;2.40;99.90
26952;DHT22;14507;52.418;13.398;2023-02-28T00:41:18;2.40;99.90
26952;DHT22;14507;52.418;13.398;2023-02-28T00:43:44;2.40;99.90
26952;DHT22;14507;52.418;13.398;2023-02-28T00:46:09;2.40;99.90
26952;DHT22;14507;52.418;13.398;2023-02-28T00:48:35;2.50;99.90
26952;DHT22;14507;52.418;13.398;2023-02-28T00:51:02;2.30;99.90
26952;DHT22;14507;52.418;13.398;2023-02-28T00:53:28;2.30;99.90
26952;DHT22;14507;52.418;13.398;2023-02-28T00:55:54;2.30;99.90
26952;DHT22;14507;52.418;13.398;2023-02-28T00:58:19;2.30;99.90
26952;DHT22;14507;52.418;13.398;2023-02-28T01:00:45;2.30;99.90
26952;DHT22;14507;52.418;13.398;2023-02-28T01:03:18;2.30;99.90
26952;DHT22;14507;52.418;13.398;2023-02-28T01:05:44;2.30;99.90
26952;DHT22;14507;52.418;13.398;2023-02-28T01:08:09;2.30;99.90
26952;DHT22;14507;52.418;13.398;2023-02-28T01:10:35;2.20;99.90
26952;DHT22;14507;52.418;13.398;2023-02-28T01:13:02;2.20;99.90
26952;DHT22;14507;52.418;13.398;2023-02-28T01:15:28;2.20;99.90
26952;DHT22;14507;52.418;13.398;2023-02-28T01:17:54;2.30;99.90
26952;DHT22;14507;52.418;13.398;2023-02-28T01:20:19;2.20;99.90
26952;DHT22;14507;52.418;13.398;2023-02-28T01:22:46;2.20;99.90
26952;DHT22;14507;52.418;13.398;2023-02-28T01:25:12;2.20;99.90
26952;DHT22;14507;52.418;13.398;2023-02-28T01:27:38;2.10;99.90
26952;DHT22;14507;52.418;13.398;2023-02-28T01:30:06;2.10;99.90
26952;DHT22;14507;52.418;13.398;2023-02-28T01:32:32;2.00;99.90
26952;DHT22;14507;52.418;13.398;2023-02-28T01:34:57;3.00;99.90
26952;DHT22;14507;52.418;13.398;2023-02-28T01:37:23;2.00;99.90
26952;DHT22;14507;52.418;13.398;2023-02-28T01:39:48;2.00;99.90
26952;DHT22;14507;52.418;13.398;2023-02-28T01:42:14;2.00;99.90
26952;DHT22;14507;52.418;13.398;2023-02-28T01:47:39;2.00;99.90
26952;DHT22;14507;52.418;13.398;2023-02-28T01:50:12;2.00;99.90
26952;DHT22;14507;52.418;13.398;2023-02-28T01:52:39;2.00;99.90
26952;DHT22;14507;52.418;13.398;2023-02-28T01:55:06;1.90;99.90
26952;DHT22;14507;52.418;13.398;2023-02-28T01:57:35;1.90;99.90
26952;DHT22;14507;52.418;13.398;2023-02-28T02:00:06;1.90;99.90
26952;DHT22;14507;52.418;13.398;2023-02-28T02:02:34;1.90;99.90
26952;DHT22;14507;52.418;13.398;2023-02-28T02:05:08;1.80;99.90
26952;DHT22;14507;52.418;13.398;2023-02-28T02:07:40;1.70;99.90
26952;DHT22;14507;52.418;13.398;2023-02-28T02:17:52;1.70;99.90
26952;DHT22;14507;52.418;13.398;2023-02-28T02:20:51;1.60;99.90
26952;DHT22;14507;52.418;13.398;2023-02-28T02:23:50;1.60;99.90
26952;DHT22;14507;52.418;13.398;2023-02-28T02:32:01;1.50;99.90
26952;DHT22;14507;52.418;13.398;2023-02-28T02:34:43;1.40;99.90
26952;DHT22;14507;52.418;13.398;2023-02-28T02:43:03;1.30;99.90
26952;DHT22;14507;52.418;13.398;2023-02-28T02:48:11;1.20;99.90
26952;DHT22;14507;52.418;13.398;2023-02-28T02:50:59;1.10;99.90
26952;DHT22;14507;52.418;13.398;2023-02-28T02:53:34;1.10;99.90
26952;DHT22;14507;52.418;13.398;2023-02-28T02:56:01;1.10;99.90
26952;DHT22;14507;52.418;13.398;2023-02-28T02:58:32;1.10;99.90
26952;DHT22;14507;52.418;13.398;2023-02-28T03:01:01;1.00;99.90
26952;DHT22;14507;52.418;13.398;2023-02-28T03:03:28;0.90;99.90
26952;DHT22;14507;52.418;13.398;2023-02-28T03:05:59;0.90;99.90
26952;DHT22;14507;52.418;13.398;2023-02-28T03:08:27;0.80;99.90
26952;DHT22;14507;52.418;13.398;2023-02-28T03:10:58;0.80;99.90
26952;DHT22;14507;52.418;13.398;2023-02-28T03:13:42;0.80;99.90
26952;DHT22;14507;52.418;13.398;2023-02-28T03:16:31;0.70;99.90
26952;DHT22;14507;52.418;13.398;2023-02-28T03:22:07;0.60;99.90
26952;DHT22;14507;52.418;13.398;2023-02-28T03:24:45;0.60;99.90
26952;DHT22;14507;52.418;13.398;2023-02-28T03:27:29;0.50;99.90
26952;DHT22;14507;52.418;13.398;2023-02-28T03:32:26;0.50;99.90
26952;DHT22;14507;52.418;13.398;2023-02-28T03:35:11;0.60;99.90
26952;DHT22;14507;52.418;13.398;2023-02-28T03:37:42;0.50;99.90
26952;DHT22;14507;52.418;13.398;2023-02-28T03:40:14;0.40;99.90
26952;DHT22;14507;52.418;13.398;2023-02-28T03:42:45;0.40;99.90
26952;DHT22;14507;52.418;13.398;2023-02-28T03:45:21;0.40;99.90
26952;DHT22;14507;52.418;13.398;2023-02-28T03:47:55;0.30;99.90
26952;DHT22;14507;52.418;13.398;2023-02-28T03:53:31;0.30;99.90
26952;DHT22;14507;52.418;13.398;2023-02-28T03:56:19;0.30;99.90
26952;DHT22;14507;52.418;13.398;2023-02-28T04:01:39;0.20;99.90
26952;DHT22;14507;52.418;13.398;2023-02-28T04:04:07;0.20;99.90
26952;DHT22;14507;52.418;13.398;2023-02-28T04:06:34;0.20;99.90
26952;DHT22;14507;52.418;13.398;2023-02-28T04:09:01;0.20;99.90
26952;DHT22;14507;52.418;13.398;2023-02-28T04:11:39;0.10;99.90
26952;DHT22;14507;52.418;13.398;2023-02-28T04:14:07;0.10;99.90
26952;DHT22;14507;52.418;13.398;2023-02-28T04:16:34;0.10;99.90
26952;DHT22;14507;52.418;13.398;2023-02-28T04:19:02;0.10;99.90
26952;DHT22;14507;52.418;13.398;2023-02-28T04:21:29;0.10;99.90
26952;DHT22;14507;52.418;13.398;2023-02-28T04:23:55;1.20;99.90
26952;DHT22;14507;52.418;13.398;2023-02-28T04:26:20;0.50;99.90
26952;DHT22;14507;52.418;13.398;2023-02-28T04:28:46;0.00;99.90
26952;DHT22;14507;52.418;13.398;2023-02-28T04:31:12;0.50;99.90
26952;DHT22;14507;52.418;13.398;2023-02-28T04:33:37;-0.10;99.90
26952;DHT22;14507;52.418;13.398;2023-02-28T04:36:05;-0.10;99.90
26952;DHT22;14507;52.418;13.398;2023-02-28T04:38:36;-0.10;99.90
26952;DHT22;14507;52.418;13.398;2023-02-28T04:41:03;-0.10;99.90
26952;DHT22;14507;52.418;13.398;2023-02-28T04:43:30;-0.20;99.90
26952;DHT22;14507;52.418;13.398;2023-02-28T04:45:56;-0.30;99.90
26952;DHT22;14507;52.418;13.398;2023-02-28T04:48:24;-0.20;99.90
26952;DHT22;14507;52.418;13.398;2023-02-28T04:50:50;0.00;99.90
26952;DHT22;14507;52.418;13.398;2023-02-28T04:53:16;-0.20;99.90
26952;DHT22;14507;52.418;13.398;2023-02-28T04:55:41;-0.20;99.90
26952;DHT22;14507;52.418;13.398;2023-02-28T04:58:07;-0.20;99.90
26952;DHT22;14507;52.418;13.398;2023-02-28T05:00:33;1.00;99.90
26952;DHT22;14507;52.418;13.398;2023-02-28T05:02:58;-0.30;99.90
26952;DHT22;14507;52.418;13.398;2023-02-28T05:05:24;-0.30;99.90
26952;DHT22;14507;52.418;13.398;2023-02-28T05:07:49;0.20;99.90
26952;DHT22;14507;52.418;13.398;2023-02-28T05:10:15;0.30;99.90
26952;DHT22;14507;52.418;13.398;2023-02-28T05:12:41;-0.30;99.90
26952;DHT22;14507;52.418;13.398;2023-02-28T05:15:10;-0.40;99.90
26952;DHT22;14507;52.418;13.398;2023-02-28T05:17:37;-0.40;99.90
26952;DHT22;14507;52.418;13.398;2023-02-28T05:20:03;-0.40;99.90
26952;DHT22;14507;52.418;13.398;2023-02-28T05:22:30;-0.40;99.90
26952;DHT22;14507;52.418;13.398;2023-02-28T05:24:57;0.10;99.90
26952;DHT22;14507;52.418;13.398;2023-02-28T05:27:22;-0.40;99.90
26952;DHT22;14507;52.418;13.398;2023-02-28T05:29:48;-0.40;99.90
26952;DHT22;14507;52.418;13.398;2023-02-28T05:32:14;-0.40;99.90
26952;DHT22;14507;52.418;13.398;2023-02-28T05:34:40;-0.40;99.90
26952;DHT22;14507;52.418;13.398;2023-02-28T05:37:10;-0.50;99.90
26952;DHT22;14507;52.418;13.398;2023-02-28T05:39:36;0.00;99.90
26952;DHT22;14507;52.418;13.398;2023-02-28T05:42:02;-0.50;99.90
26952;DHT22;14507;52.418;13.398;2023-02-28T05:44:28;-0.60;99.90
26952;DHT22;14507;52.418;13.398;2023-02-28T05:46:54;-0.60;99.90
26952;DHT22;14507;52.418;13.398;2023-02-28T05:49:19;-0.60;99.90
26952;DHT22;14507;52.418;13.398;2023-02-28T05:51:45;-0.60;99.90
26952;DHT22;14507;52.418;13.398;2023-02-28T05:54:11;-0.60;99.90
26952;DHT22;14507;52.418;13.398;2023-02-28T05:56:36;-0.60;99.90
26952;DHT22;14507;52.418;13.398;2023-02-28T05:59:05;-0.60;99.90
26952;DHT22;14507;52.418;13.398;2023-02-28T06:01:39;-0.60;99.90
26952;DHT22;14507;52.418;13.398;2023-02-28T06:04:08;-0.70;99.90
26952;DHT22;14507;52.418;13.398;2023-02-28T06:06:34;-0.70;99.90
26952;DHT22;14507;52.418;13.398;2023-02-28T06:09:00;-0.70;99.90
26952;DHT22;14507;52.418;13.398;2023-02-28T06:11:26;-0.70;99.90
26952;DHT22;14507;52.418;13.398;2023-02-28T06:13:57;-0.70;99.90
26952;DHT22;14507;52.418;13.398;2023-02-28T06:16:25;-0.60;99.90
26952;DHT22;14507;52.418;13.398;2023-02-28T06:18:51;-0.60;99.90
26952;DHT22;14507;52.418;13.398;2023-02-28T06:21:18;-0.70;99.90
26952;DHT22;14507;52.418;13.398;2023-02-28T06:23:44;-0.70;99.90
26952;DHT22;14507;52.418;13.398;2023-02-28T06:26:10;-0.30;99.90
26952;DHT22;14507;52.418;13.398;2023-02-28T06:28:36;-0.60;99.90
26952;DHT22;14507;52.418;13.398;2023-02-28T06:31:10;-0.70;99.90
26952;DHT22;14507;52.418;13.398;2023-02-28T06:33:37;-0.60;99.90
26952;DHT22;14507;52.418;13.398;2023-02-28T06:36:03;-0.60;99.90
26952;DHT22;14507;52.418;13.398;2023-02-28T06:38:30;-0.50;99.90
26952;DHT22;14507;52.418;13.398;2023-02-28T06:40:57;-0.40;99.90
26952;DHT22;14507;52.418;13.398;2023-02-28T06:43:24;-0.50;99.90
26952;DHT22;14507;52.418;13.398;2023-02-28T06:45:50;-0.50;99.90
26952;DHT22;14507;52.418;13.398;2023-02-28T06:48:16;-0.40;99.90
26952;DHT22;14507;52.418;13.398;2023-02-28T06:50:42;-0.30;99.90
26952;DHT22;14507;52.418;13.398;2023-02-28T06:53:07;-0.10;99.90
26952;DHT22;14507;52.418;13.398;2023-02-28T06:55:33;0.50;99.90
26952;DHT22;14507;52.418;13.398;2023-02-28T06:57:59;2.20;99.90
26952;DHT22;14507;52.418;13.398;2023-02-28T07:00:24;4.20;99.90
26952;DHT22;14507;52.418;13.398;2023-02-28T07:02:50;6.00;99.90
26952;DHT22;14507;52.418;13.398;2023-02-28T07:05:16;7.70;98.20
26952;DHT22;14507;52.418;13.398;2023-02-28T07:07:41;9.20;95.30
26952;DHT22;14507;52.418;13.398;2023-02-28T07:10:11;10.30;92.20
26952;DHT22;14507;52.418;13.398;2023-02-28T07:12:37;11.10;90.10
26952;DHT22;14507;52.418;13.398;2023-02-28T07:15:04;11.70;87.20
26952;DHT22;14507;52.418;13.398;2023-02-28T07:17:30;11.90;84.80
26952;DHT22;14507;52.418;13.398;2023-02-28T07:19:56;11.50;84.60
26952;DHT22;14507;52.418;13.398;2023-02-28T07:22:21;10.40;87.20
26952;DHT22;14507;52.418;13.398;2023-02-28T07:24:47;9.20;90.40
26952;DHT22;14507;52.418;13.398;2023-02-28T07:27:13;8.10;92.10
26952;DHT22;14507;52.418;13.398;2023-02-28T07:29:51;7.10;94.00
26952;DHT22;14507;52.418;13.398;2023-02-28T07:32:17;6.10;95.60
26952;DHT22;14507;52.418;13.398;2023-02-28T07:34:44;5.30;97.50
26952;DHT22;14507;52.418;13.398;2023-02-28T07:37:09;4.70;99.50
26952;DHT22;14507;52.418;13.398;2023-02-28T07:39:35;4.20;99.90
26952;DHT22;14507;52.418;13.398;2023-02-28T07:42:04;3.70;99.90
26952;DHT22;14507;52.418;13.398;2023-02-28T07:44:30;3.60;99.90
26952;DHT22;14507;52.418;13.398;2023-02-28T07:46:55;3.40;99.90
26952;DHT22;14507;52.418;13.398;2023-02-28T07:49:21;3.30;99.90
26952;DHT22;14507;52.418;13.398;2023-02-28T07:51:47;3.10;99.90
26952;DHT22;14507;52.418;13.398;2023-02-28T07:54:12;3.10;99.90
26952;DHT22;14507;52.418;13.398;2023-02-28T07:56:38;3.00;99.90
26952;DHT22;14507;52.418;13.398;2023-02-28T07:59:04;2.90;99.90
26952;DHT22;14507;52.418;13.398;2023-02-28T08:01:30;2.80;99.90
26952;DHT22;14507;52.418;13.398;2023-02-28T08:03:56;2.80;99.90
26952;DHT22;14507;52.418;13.398;2023-02-28T08:06:24;2.80;99.90
26952;DHT22;14507;52.418;13.398;2023-02-28T08:08:50;2.90;99.90
26952;DHT22;14507;52.418;13.398;2023-02-28T08:11:17;2.90;99.90
26952;DHT22;14507;52.418;13.398;2023-02-28T08:13:44;2.90;99.90
26952;DHT22;14507;52.418;13.398;2023-02-28T08:16:11;3.20;99.90
26952;DHT22;14507;52.418;13.398;2023-02-28T08:18:39;4.70;99.90
26952;DHT22;14507;52.418;13.398;2023-02-28T08:21:09;7.30;94.60
26952;DHT22;14507;52.418;13.398;2023-02-28T08:23:35;10.20;85.80
26952;DHT22;14507;52.418;13.398;2023-02-28T08:26:01;12.60;72.90
26952;DHT22;14507;52.418;13.398;2023-02-28T08:28:27;14.40;61.80
26952;DHT22;14507;52.418;13.398;2023-02-28T08:30:53;15.80;57.80
26952;DHT22;14507;52.418;13.398;2023-02-28T08:33:19;16.60;55.40
26952;DHT22;14507;52.418;13.398;2023-02-28T08:35:45;17.00;53.70
26952;DHT22;14507;52.418;13.398;2023-02-28T08:38:11;17.30;52.30
26952;DHT22;14507;52.418;13.398;2023-02-28T08:40:36;17.10;53.00
26952;DHT22;14507;52.418;13.398;2023-02-28T08:43:02;16.60;52.80
26952;DHT22;14507;52.418;13.398;2023-02-28T08:45:28;15.50;53.00
26952;DHT22;14507;52.418;13.398;2023-02-28T08:47:55;14.10;56.10
26952;DHT22;14507;52.418;13.398;2023-02-28T08:50:21;13.70;56.80
26952;DHT22;14507;52.418;13.398;2023-02-28T08:52:47;13.10;58.50
26952;DHT22;14507;52.418;13.398;2023-02-28T08:55:13;12.50;58.90
26952;DHT22;14507;52.418;13.398;2023-02-28T08:57:38;12.70;60.30
26952;DHT22;14507;52.418;13.398;2023-02-28T09:00:04;13.60;57.30
26952;DHT22;14507;52.418;13.398;2023-02-28T09:02:31;14.40;55.30
26952;DHT22;14507;52.418;13.398;2023-02-28T09:04:57;15.10;54.10
26952;DHT22;14507;52.418;13.398;2023-02-28T09:07:24;16.00;55.00
26952;DHT22;14507;52.418;13.398;2023-02-28T09:09:49;16.90;51.70
26952;DHT22;14507;52.418;13.398;2023-02-28T09:12:24;17.60;50.10
26952;DHT22;14507;52.418;13.398;2023-02-28T09:14:50;17.80;49.50
26952;DHT22;14507;52.418;13.398;2023-02-28T09:17:16;17.50;49.10
26952;DHT22;14507;52.418;13.398;2023-02-28T09:19:42;17.40;48.10
26952;DHT22;14507;52.418;13.398;2023-02-28T09:22:09;17.80;47.80
26952;DHT22;14507;52.418;13.398;2023-02-28T09:24:36;17.90;46.00
26952;DHT22;14507;52.418;13.398;2023-02-28T09:27:02;18.20;45.70
26952;DHT22;14507;52.418;13.398;2023-02-28T09:29:28;18.30;45.00
26952;DHT22;14507;52.418;13.398;2023-02-28T09:31:53;18.10;45.10
26952;DHT22;14507;52.418;13.398;2023-02-28T09:34:19;17.90;44.80
26952;DHT22;14507;52.418;13.398;2023-02-28T09:36:45;17.30;45.60
26952;DHT22;14507;52.418;13.398;2023-02-28T09:39:11;16.00;46.70
26952;DHT22;14507;52.418;13.398;2023-02-28T09:41:45;15.00;48.10
26952;DHT22;14507;52.418;13.398;2023-02-28T09:44:31;13.90;49.80
26952;DHT22;14507;52.418;13.398;2023-02-28T09:47:11;12.60;51.50
26952;DHT22;14507;52.418;13.398;2023-02-28T09:49:46;11.40;53.60
26952;DHT22;14507;52.418;13.398;2023-02-28T09:52:17;10.50;55.90
26952;DHT22;14507;52.418;13.398;2023-02-28T09:54:45;9.70;56.10
26952;DHT22;14507;52.418;13.398;2023-02-28T10:00:32;8.40;60.10
26952;DHT22;14507;52.418;13.398;2023-02-28T10:06:17;7.10;62.00
26952;DHT22;14507;52.418;13.398;2023-02-28T10:11:20;6.60;64.80
26952;DHT22;14507;52.418;13.398;2023-02-28T10:19:28;6.50;64.10
26952;DHT22;14507;52.418;13.398;2023-02-28T10:22:12;6.40;65.10
26952;DHT22;14507;52.418;13.398;2023-02-28T10:24:39;6.40;66.70
26952;DHT22;14507;52.418;13.398;2023-02-28T10:29:48;6.40;66.00
26952;DHT22;14507;52.418;13.398;2023-02-28T10:32:17;6.30;65.00
26952;DHT22;14507;52.418;13.398;2023-02-28T10:34:44;6.20;65.50
26952;DHT22;14507;52.418;13.398;2023-02-28T10:37:12;6.20;65.90
26952;DHT22;14507;52.418;13.398;2023-02-28T10:39:46;6.20;66.70
26952;DHT22;14507;52.418;13.398;2023-02-28T10:42:26;6.20;65.90
26952;DHT22;14507;52.418;13.398;2023-02-28T10:45:13;6.20;68.50
26952;DHT22;14507;52.418;13.398;2023-02-28T10:50:52;6.10;67.60
26952;DHT22;14507;52.418;13.398;2023-02-28T10:53:32;6.10;68.60
26952;DHT22;14507;52.418;13.398;2023-02-28T11:03:53;6.10;67.50
26952;DHT22;14507;52.418;13.398;2023-02-28T11:06:32;6.00;68.20
26952;DHT22;14507;52.418;13.398;2023-02-28T11:09:06;6.10;67.50
26952;DHT22;14507;52.418;13.398;2023-02-28T11:11:43;6.20;67.40
26952;DHT22;14507;52.418;13.398;2023-02-28T11:14:29;6.10;68.50
26952;DHT22;14507;52.418;13.398;2023-02-28T11:17:00;6.00;69.00
26952;DHT22;14507;52.418;13.398;2023-02-28T11:19:45;6.10;70.40
26952;DHT22;14507;52.418;13.398;2023-02-28T11:22:18;6.20;69.90
26952;DHT22;14507;52.418;13.398;2023-02-28T11:24:47;6.30;67.90
26952;DHT22;14507;52.418;13.398;2023-02-28T11:29:59;6.30;67.40
26952;DHT22;14507;52.418;13.398;2023-02-28T11:32:29;6.30;68.70
26952;DHT22;14507;52.418;13.398;2023-02-28T11:35:21;6.30;68.50
26952;DHT22;14507;52.418;13.398;2023-02-28T11:37:48;6.30;67.90
26952;DHT22;14507;52.418;13.398;2023-02-28T11:40:15;6.40;69.40
26952;DHT22;14507;52.418;13.398;2023-02-28T11:45:49;6.70;71.00
26952;DHT22;14507;52.418;13.398;2023-02-28T11:48:42;6.80;66.30
26952;DHT22;14507;52.418;13.398;2023-02-28T11:51:22;6.80;67.60
26952;DHT22;14507;52.418;13.398;2023-02-28T11:57:08;7.00;65.90
26952;DHT22;14507;52.418;13.398;2023-02-28T11:59:55;7.00;67.10
26952;DHT22;14507;52.418;13.398;2023-02-28T12:11:54;7.00;67.10
26952;DHT22;14507;52.418;13.398;2023-02-28T12:22:35;6.80;68.00
26952;DHT22;14507;52.418;13.398;2023-02-28T12:25:30;6.80;65.70
26952;DHT22;14507;52.418;13.398;2023-02-28T12:27:59;6.70;66.60
26952;DHT22;14507;52.418;13.398;2023-02-28T12:30:34;6.80;67.40
26952;DHT22;14507;52.418;13.398;2023-02-28T12:33:07;6.80;66.60
26952;DHT22;14507;52.418;13.398;2023-02-28T12:35:41;6.80;66.80
26952;DHT22;14507;52.418;13.398;2023-02-28T12:38:38;6.80;65.70
26952;DHT22;14507;52.418;13.398;2023-02-28T12:41:14;6.90;67.80
26952;DHT22;14507;52.418;13.398;2023-02-28T12:43:52;6.90;67.60
26952;DHT22;14507;52.418;13.398;2023-02-28T12:46:25;6.90;66.00
26952;DHT22;14507;52.418;13.398;2023-02-28T12:48:56;6.90;66.50
26952;DHT22;14507;52.418;13.398;2023-02-28T12:51:24;7.00;69.10
26952;DHT22;14507;52.418;13.398;2023-02-28T12:56:42;7.10;67.40
26952;DHT22;14507;52.418;13.398;2023-02-28T12:59:22;7.20;68.00
26952;DHT22;14507;52.418;13.398;2023-02-28T13:02:50;7.20;68.60
26952;DHT22;14507;52.418;13.398;2023-02-28T13:10:45;6.90;66.10
26952;DHT22;14507;52.418;13.398;2023-02-28T13:13:17;6.90;66.80
26952;DHT22;14507;52.418;13.398;2023-02-28T13:20:58;7.00;66.70
26952;DHT22;14507;52.418;13.398;2023-02-28T13:26:12;7.00;67.20
26952;DHT22;14507;52.418;13.398;2023-02-28T13:31:23;7.10;68.00
26952;DHT22;14507;52.418;13.398;2023-02-28T13:38:50;7.10;65.40
26952;DHT22;14507;52.418;13.398;2023-02-28T13:44:14;7.00;67.00
26952;DHT22;14507;52.418;13.398;2023-02-28T13:54:58;7.00;66.40
26952;DHT22;14507;52.418;13.398;2023-02-28T14:05:34;7.00;66.30
26952;DHT22;14507;52.418;13.398;2023-02-28T14:08:06;6.90;67.20
26952;DHT22;14507;52.418;13.398;2023-02-28T14:10:45;7.00;66.60
26952;DHT22;14507;52.418;13.398;2023-02-28T14:16:10;7.00;67.40
26952;DHT22;14507;52.418;13.398;2023-02-28T14:18:50;7.10;66.30
26952;DHT22;14507;52.418;13.398;2023-02-28T14:21:24;7.20;66.80
26952;DHT22;14507;52.418;13.398;2023-02-28T14:26:45;7.10;65.30
26952;DHT22;14507;52.418;13.398;2023-02-28T14:29:41;7.00;65.30
26952;DHT22;14507;52.418;13.398;2023-02-28T14:37:30;7.00;67.70
26952;DHT22;14507;52.418;13.398;2023-02-28T14:39:58;7.10;67.30
26952;DHT22;14507;52.418;13.398;2023-02-28T14:42:36;7.10;67.40
26952;DHT22;14507;52.418;13.398;2023-02-28T14:45:04;7.00;67.50
26952;DHT22;14507;52.418;13.398;2023-02-28T14:47:33;7.10;67.30
26952;DHT22;14507;52.418;13.398;2023-02-28T14:50:01;7.10;66.00
26952;DHT22;14507;52.418;13.398;2023-02-28T14:52:31;7.10;66.90
26952;DHT22;14507;52.418;13.398;2023-02-28T14:55:00;7.00;66.10
26952;DHT22;14507;52.418;13.398;2023-02-28T14:57:28;7.00;66.80
26952;DHT22;14507;52.418;13.398;2023-02-28T15:02:49;7.00;66.20
26952;DHT22;14507;52.418;13.398;2023-02-28T15:07:44;6.90;66.20
26952;DHT22;14507;52.418;13.398;2023-02-28T15:10:15;6.90;66.40
26952;DHT22;14507;52.418;13.398;2023-02-28T15:12:47;6.70;67.20
26952;DHT22;14507;52.418;13.398;2023-02-28T15:15:16;6.60;67.30
26952;DHT22;14507;52.418;13.398;2023-02-28T15:17:45;6.60;67.90
26952;DHT22;14507;52.418;13.398;2023-02-28T15:20:13;6.50;68.00
26952;DHT22;14507;52.418;13.398;2023-02-28T15:22:41;6.50;68.00
26952;DHT22;14507;52.418;13.398;2023-02-28T15:25:10;6.40;69.10
26952;DHT22;14507;52.418;13.398;2023-02-28T15:27:44;6.40;69.30
26952;DHT22;14507;52.418;13.398;2023-02-28T15:30:26;6.40;67.70
26952;DHT22;14507;52.418;13.398;2023-02-28T15:35:38;6.40;69.10
26952;DHT22;14507;52.418;13.398;2023-02-28T15:38:23;6.40;69.60
26952;DHT22;14507;52.418;13.398;2023-02-28T15:40:55;6.40;70.00
26952;DHT22;14507;52.418;13.398;2023-02-28T15:43:29;6.40;70.00
26952;DHT22;14507;52.418;13.398;2023-02-28T15:50:52;6.30;71.10
26952;DHT22;14507;52.418;13.398;2023-02-28T15:53:24;6.30;71.50
26952;DHT22;14507;52.418;13.398;2023-02-28T15:58:47;6.20;72.60
26952;DHT22;14507;52.418;13.398;2023-02-28T16:01:23;6.20;72.60
26952;DHT22;14507;52.418;13.398;2023-02-28T16:03:52;6.20;73.10
26952;DHT22;14507;52.418;13.398;2023-02-28T16:08:47;6.00;72.50
26952;DHT22;14507;52.418;13.398;2023-02-28T16:11:14;6.00;73.00
26952;DHT22;14507;52.418;13.398;2023-02-28T16:13:40;5.90;73.00
26952;DHT22;14507;52.418;13.398;2023-02-28T16:16:06;5.90;73.50
26952;DHT22;14507;52.418;13.398;2023-02-28T16:18:32;5.80;74.50
26952;DHT22;14507;52.418;13.398;2023-02-28T16:20:57;5.80;74.90
26952;DHT22;14507;52.418;13.398;2023-02-28T16:23:23;5.70;75.40
26952;DHT22;14507;52.418;13.398;2023-02-28T16:25:49;5.70;75.60
26952;DHT22;14507;52.418;13.398;2023-02-28T16:28:19;5.60;75.80
26952;DHT22;14507;52.418;13.398;2023-02-28T16:30:45;5.50;76.50
26952;DHT22;14507;52.418;13.398;2023-02-28T16:33:11;5.50;77.20
26952;DHT22;14507;52.418;13.398;2023-02-28T16:35:37;5.40;77.90
26952;DHT22;14507;52.418;13.398;2023-02-28T16:38:03;5.40;77.00
26952;DHT22;14507;52.418;13.398;2023-02-28T16:40:33;5.40;77.40
26952;DHT22;14507;52.418;13.398;2023-02-28T16:43:00;5.30;77.90
26952;DHT22;14507;52.418;13.398;2023-02-28T16:45:28;5.30;77.80
26952;DHT22;14507;52.418;13.398;2023-02-28T16:47:54;5.20;78.10
26952;DHT22;14507;52.418;13.398;2023-02-28T16:50:23;5.20;79.30
26952;DHT22;14507;52.418;13.398;2023-02-28T16:52:49;5.10;79.10
26952;DHT22;14507;52.418;13.398;2023-02-28T16:55:17;5.00;79.40
26952;DHT22;14507;52.418;13.398;2023-02-28T16:57:44;5.10;80.00
26952;DHT22;14507;52.418;13.398;2023-02-28T17:00:13;4.90;80.30
26952;DHT22;14507;52.418;13.398;2023-02-28T17:02:39;4.80;82.80
26952;DHT22;14507;52.418;13.398;2023-02-28T17:05:05;4.70;84.50
26952;DHT22;14507;52.418;13.398;2023-02-28T17:07:32;4.70;86.20
26952;DHT22;14507;52.418;13.398;2023-02-28T17:09:57;4.60;86.00
26952;DHT22;14507;52.418;13.398;2023-02-28T17:12:23;4.60;85.60
26952;DHT22;14507;52.418;13.398;2023-02-28T17:14:49;4.50;86.60
26952;DHT22;14507;52.418;13.398;2023-02-28T17:17:21;4.50;89.50
26952;DHT22;14507;52.418;13.398;2023-02-28T17:19:46;4.40;89.40
26952;DHT22;14507;52.418;13.398;2023-02-28T17:22:12;4.40;90.80
26952;DHT22;14507;52.418;13.398;2023-02-28T17:24:38;4.30;91.30
26952;DHT22;14507;52.418;13.398;2023-02-28T17:27:04;4.30;91.60
26952;DHT22;14507;52.418;13.398;2023-02-28T17:29:29;4.20;92.00
26952;DHT22;14507;52.418;13.398;2023-02-28T17:31:55;4.10;92.40
26952;DHT22;14507;52.418;13.398;2023-02-28T17:34:21;4.10;92.60
26952;DHT22;14507;52.418;13.398;2023-02-28T17:36:49;4.00;93.10
26952;DHT22;14507;52.418;13.398;2023-02-28T17:39:17;3.90;93.20
26952;DHT22;14507;52.418;13.398;2023-02-28T17:41:53;3.80;93.40
26952;DHT22;14507;52.418;13.398;2023-02-28T17:44:23;3.80;93.50
26952;DHT22;14507;52.418;13.398;2023-02-28T17:46:49;3.70;93.40
26952;DHT22;14507;52.418;13.398;2023-02-28T17:49:18;3.80;93.50
26952;DHT22;14507;52.418;13.398;2023-02-28T17:51:44;3.70;93.70
26952;DHT22;14507;52.418;13.398;2023-02-28T17:54:09;3.60;93.80
26952;DHT22;14507;52.418;13.398;2023-02-28T17:56:35;3.60;94.10
26952;DHT22;14507;52.418;13.398;2023-02-28T17:59:01;3.60;94.40
26952;DHT22;14507;52.418;13.398;2023-02-28T18:01:27;3.40;95.00
26952;DHT22;14507;52.418;13.398;2023-02-28T18:03:54;3.40;95.40
26952;DHT22;14507;52.418;13.398;2023-02-28T18:06:23;3.80;95.50
26952;DHT22;14507;52.418;13.398;2023-02-28T18:08:50;3.20;95.50
26952;DHT22;14507;52.418;13.398;2023-02-28T18:11:20;3.20;96.30
26952;DHT22;14507;52.418;13.398;2023-02-28T18:13:47;3.10;96.90
26952;DHT22;14507;52.418;13.398;2023-02-28T18:16:14;3.10;97.30
26952;DHT22;14507;52.418;13.398;2023-02-28T18:18:40;3.00;97.50
26952;DHT22;14507;52.418;13.398;2023-02-28T18:21:07;3.00;97.60
26952;DHT22;14507;52.418;13.398;2023-02-28T18:23:34;3.00;97.70
26952;DHT22;14507;52.418;13.398;2023-02-28T18:25:59;2.90;98.20